Time;durP1;ratioP1;P1;durP2;ratioP2;P2;SDS_P1;SDS_P2;PMS_P1;PMS_P2;Temp;Humidity;BMP_temperature;BMP_pressure;BME280_temperature;BME280_humidity;BME280_pressure;Samples;Min_cycle;Max_cycle;Signal;HPM_P1;HPM_P2
2024/04/22 00:00:45;;;;;;;;;;;;;;;;;;6872350;25;19931;-60
2024/04/22 00:03:51;;;;;;;;;;;;;;;;;;6871787;25;19923;-60
2024/04/22 00:06:56;;;;;;;;;;;;;;;;;;6872972;25;19934;-60
2024/04/22 00:10:01;;;;;;;;;;;;;;;;;;6863238;25;19931;-62
2024/04/22 00:13:04;;;;;;;;;;;;;;;;;;6826974;26;19946;-61
2024/04/22 00:16:12;;;;;;;;;;;;;;;;;;6826410;26;19924;-60
2024/04/22 00:19:17;;;;;;;;;;;;;;;;;;6825194;26;19924;-60
2024/04/22 00:22:20;;;;;;;;;;;;;;;;;;6826458;26;20081;-60
2024/04/22 00:25:26;;;;;;;;;;;;;;;;;;6862934;25;19923;-60
2024/04/22 00:28:28;;;;;;;;;;;;;;;;;;6872876;25;19934;-60
2024/04/22 00:31:36;;;;;;;;;;;;;;;;;;6867872;25;19923;-61
2024/04/22 00:34:40;;;;;;;;;;;;;;;;;;6872213;25;19923;-60
2024/04/22 00:37:45;;;;;;;;;;;;;;;;;;6872316;25;20117;-60
2024/04/22 00:40:47;;;;;;;;;;;;;;;;;;6872344;25;19924;-60
2024/04/22 00:43:53;;;;;;;;;;;;;;;;;;6872233;25;19985;-60
2024/04/22 00:46:58;;;;;;;;;;;;;;;;;;6872114;25;20023;-59
2024/04/22 00:50:03;;;;;;;;;;;;;;;;;;6870572;25;19923;-60
2024/04/22 00:53:06;;;;;;;;;;;;;;;;;;6871869;25;19923;-60
2024/04/22 00:56:11;;;;;;;;;;;;;;;;;;6871758;25;19924;-60
2024/04/22 00:59:14;;;;;;;;;;;;;;;;;;6870919;25;19923;-60
2024/04/22 01:02:22;;;;;;;;;;;;;;;;;;6872013;25;19930;-60
2024/04/22 01:05:24;;;;;;;;;;;;;;;;;;6870154;25;19923;-60
2024/04/22 01:08:29;;;;;;;;;;;;;;;;;;6871786;25;19931;-60
2024/04/22 01:11:32;;;;;;;;;;;;;;;;;;6836014;25;20007;-60
2024/04/22 01:14:37;;;;;;;;;;;;;;;;;;6825206;26;19931;-60
2024/04/22 01:17:43;;;;;;;;;;;;;;;;;;6810032;26;19924;-60
2024/04/22 01:20:49;;;;;;;;;;;;;;;;;;6779707;26;19948;-60
2024/04/22 01:23:54;;;;;;;;;;;;;;;;;;6808579;26;19924;-60
2024/04/22 01:26:59;;;;;;;;;;;;;;;;;;6825016;26;19935;-60
2024/04/22 01:30:05;;;;;;;;;;;;;;;;;;6860665;25;20098;-61
2024/04/22 01:33:08;;;;;;;;;;;;;;;;;;6871431;25;19923;-60
2024/04/22 01:36:13;;;;;;;;;;;;;;;;;;6870164;25;20010;-60
2024/04/22 01:39:18;;;;;;;;;;;;;;;;;;6870623;25;19923;-61
2024/04/22 01:42:23;;;;;;;;;;;;;;;;;;6870370;25;19923;-59
2024/04/22 01:45:28;;;;;;;;;;;;;;;;;;6869715;25;20022;-60
2024/04/22 01:48:31;;;;;;;;;;;;;;;;;;6869815;25;19930;-60
2024/04/22 01:51:36;;;;;;;;;;;;;;;;;;6870038;25;19931;-61
2024/04/22 01:54:42;;;;;;;;;;;;;;;;;;6870293;25;20165;-60
2024/04/22 01:57:47;;;;;;;;;;;;;;;;;;6869713;25;19930;-60
2024/04/22 02:00:49;;;;;;;;;;;;;;;;;;6870834;25;19923;-60
2024/04/22 02:03:54;;;;;;;;;;;;;;;;;;6875354;25;19930;-60
2024/04/22 02:06:57;;;;;;;;;;;;;;;;;;6875518;25;19924;-60
2024/04/22 02:10:06;;;;;;;;;;;;;;;;;;6864268;25;19931;-60
2024/04/22 02:13:24;;;;;;;;;;;;;;;;;;6829144;26;19924;-60
2024/04/22 02:16:30;;;;;;;;;;;;;;;;;;6828277;26;20006;-59
2024/04/22 02:19:32;;;;;;;;;;;;;;;;;;6828346;26;20021;-61
2024/04/22 02:22:38;;;;;;;;;;;;;;;;;;6829227;26;19924;-59
2024/04/22 02:25:46;;;;;;;;;;;;;;;;;;6869785;25;19923;-60
2024/04/22 02:28:49;;;;;;;;;;;;;;;;;;6874664;25;19965;-61
2024/04/22 02:31:55;;;;;;;;;;;;;;;;;;6874979;25;19934;-60
2024/04/22 02:34:57;;;;;;;;;;;;;;;;;;6872476;25;19924;-60
2024/04/22 02:38:02;;;;;;;;;;;;;;;;;;6873720;25;20124;-60
2024/04/22 02:41:08;;;;;;;;;;;;;;;;;;6873751;25;19946;-61
2024/04/22 02:44:13;;;;;;;;;;;;;;;;;;6874473;25;19930;-61
2024/04/22 02:47:15;;;;;;;;;;;;;;;;;;6874916;25;19924;-60
2024/04/22 02:50:21;;;;;;;;;;;;;;;;;;6874228;25;20001;-61
2024/04/22 02:53:26;;;;;;;;;;;;;;;;;;6874715;25;19924;-60
2024/04/22 02:56:31;;;;;;;;;;;;;;;;;;6873411;25;20219;-60
2024/04/22 02:59:37;;;;;;;;;;;;;;;;;;6873682;25;19923;-60
2024/04/22 03:02:39;;;;;;;;;;;;;;;;;;6826779;26;19924;-60
2024/04/22 03:05:44;;;;;;;;;;;;;;;;;;6809238;26;19924;-63
2024/04/22 03:08:52;;;;;;;;;;;;;;;;;;6811882;26;19924;-60
2024/04/22 03:11:57;;;;;;;;;;;;;;;;;;6838780;25;20156;-60
2024/04/22 03:15:03;;;;;;;;;;;;;;;;;;6870938;26;19923;-60
2024/04/22 03:18:05;;;;;;;;;;;;;;;;;;6873771;25;19995;-61
2024/04/22 03:21:11;;;;;;;;;;;;;;;;;;6835876;25;19928;-60
2024/04/22 03:24:13;;;;;;;;;;;;;;;;;;6845889;25;20236;-60
2024/04/22 03:27:21;;;;;;;;;;;;;;;;;;6873697;25;19924;-60
2024/04/22 03:30:24;;;;;;;;;;;;;;;;;;6873109;25;19944;-60
2024/04/22 03:33:29;;;;;;;;;;;;;;;;;;6872365;25;19924;-60
2024/04/22 03:36:34;;;;;;;;;;;;;;;;;;6862413;25;20229;-61
2024/04/22 03:39:39;;;;;;;;;;;;;;;;;;6827442;26;20118;-61
2024/04/22 03:42:47;;;;;;;;;;;;;;;;;;6827136;26;20101;-61
2024/04/22 03:52:32;;;;;;;;;;;;;;;;;;6828063;26;20003;-60
2024/04/22 03:55:37;;;;;;;;;;;;;;;;;;6827020;26;19924;-61
2024/04/22 03:58:45;;;;;;;;;;;;;;;;;;6827052;26;19930;-60
2024/04/22 04:01:50;;;;;;;;;;;;;;;;;;6827905;26;19924;-60
2024/04/22 04:04:53;;;;;;;;;;;;;;;;;;6826397;26;19924;-60
2024/04/22 04:07:58;;;;;;;;;;;;;;;;;;6826950;26;19931;-61
2024/04/22 04:11:09;;;;;;;;;;;;;;;;;;6842597;25;19935;-60
2024/04/22 04:14:17;;;;;;;;;;;;;;;;;;6870395;25;19923;-60
2024/04/22 04:17:23;;;;;;;;;;;;;;;;;;6873429;25;20101;-62
2024/04/22 04:20:29;;;;;;;;;;;;;;;;;;6872186;25;19931;-61
2024/04/22 04:23:31;;;;;;;;;;;;;;;;;;6863911;25;20807;-61
2024/04/22 04:26:36;;;;;;;;;;;;;;;;;;6826113;26;20114;-61
2024/04/22 04:29:43;;;;;;;;;;;;;;;;;;6826659;26;19931;-60
2024/04/22 04:32:48;;;;;;;;;;;;;;;;;;6826692;26;19931;-61
2024/04/22 04:35:56;;;;;;;;;;;;;;;;;;6826096;26;19924;-61
2024/04/22 04:39:02;;;;;;;;;;;;;;;;;;6826842;26;19931;-62
2024/04/22 04:42:05;;;;;;;;;;;;;;;;;;6827853;26;19924;-60
2024/04/22 04:45:13;;;;;;;;;;;;;;;;;;6827291;26;19931;-62
2024/04/22 04:48:18;;;;;;;;;;;;;;;;;;6827182;26;19931;-60
2024/04/22 04:51:21;;;;;;;;;;;;;;;;;;6826150;26;19924;-60
2024/04/22 04:54:26;;;;;;;;;;;;;;;;;;6825468;26;19924;-60
2024/04/22 04:57:29;;;;;;;;;;;;;;;;;;6826109;26;19924;-60
2024/04/22 05:00:37;;;;;;;;;;;;;;;;;;6826192;26;19931;-59
2024/04/22 05:03:39;;;;;;;;;;;;;;;;;;6825715;26;20029;-61
2024/04/22 05:06:45;;;;;;;;;;;;;;;;;;6826013;26;20028;-60
2024/04/22 05:09:47;;;;;;;;;;;;;;;;;;6825391;26;19935;-61
2024/04/22 05:12:52;;;;;;;;;;;;;;;;;;6870536;25;20277;-61
2024/04/22 05:15:59;;;;;;;;;;;;;;;;;;6872738;25;20104;-60
2024/04/22 05:19:05;;;;;;;;;;;;;;;;;;6872085;25;19924;-60
2024/04/22 05:22:08;;;;;;;;;;;;;;;;;;6871938;25;19923;-60
2024/04/22 05:25:13;;;;;;;;;;;;;;;;;;6837047;25;19924;-60
2024/04/22 05:28:16;;;;;;;;;;;;;;;;;;6824937;26;20102;-61
2024/04/22 05:31:24;;;;;;;;;;;;;;;;;;6780777;26;19928;-60
2024/04/22 05:37:50;;;;;;;;;;;;;;;;;;6826241;26;19930;-61
2024/04/22 05:40:55;;;;;;;;;;;;;;;;;;6780108;26;19924;-60
2024/04/22 05:44:00;;;;;;;;;;;;;;;;;;6780600;26;19931;-60
2024/04/22 05:47:08;;;;;;;;;;;;;;;;;;6780845;26;19932;-61
2024/04/22 05:50:13;;;;;;;;;;;;;;;;;;6780316;26;19937;-59
2024/04/22 05:53:19;;;;;;;;;;;;;;;;;;6779917;26;19932;-60
2024/04/22 05:56:25;;;;;;;;;;;;;;;;;;6780463;26;20863;-60
2024/04/22 05:59:27;;;;;;;;;;;;;;;;;;6779984;26;20118;-61
2024/04/22 06:02:35;;;;;;;;;;;;;;;;;;6781229;26;19924;-60
2024/04/22 06:05:38;;;;;;;;;;;;;;;;;;6779043;26;19932;-61
2024/04/22 06:08:43;;;;;;;;;;;;;;;;;;6779567;26;19932;-60
2024/04/22 06:11:48;;;;;;;;;;;;;;;;;;6793343;26;19952;-61
2024/04/22 06:15:11;;;;;;;;;;;;;;;;;;6810233;26;20134;-62
2024/04/22 06:18:19;;;;;;;;;;;;;;;;;;6810137;26;19924;-62
2024/04/22 06:21:22;;;;;;;;;;;;;;;;;;6823458;26;19924;-61
2024/04/22 06:24:29;;;;;;;;;;;;;;;;;;6798673;26;19924;-61
2024/04/22 06:27:34;;;;;;;;;;;;;;;;;;6824745;26;20128;-63
2024/04/22 06:30:37;;;;;;;;;;;;;;;;;;6823750;26;20109;-61
2024/04/22 06:33:45;;;;;;;;;;;;;;;;;;6823637;26;19931;-61
2024/04/22 06:36:47;;;;;;;;;;;;;;;;;;6824363;26;20005;-60
2024/04/22 06:39:53;;;;;;;;;;;;;;;;;;6824119;26;20117;-61
2024/04/22 06:42:58;;;;;;;;;;;;;;;;;;6824494;26;20075;-61
2024/04/22 06:46:01;;;;;;;;;;;;;;;;;;6824037;26;19928;-59
2024/04/22 06:49:09;;;;;;;;;;;;;;;;;;6825852;26;19931;-61
2024/04/22 06:52:14;;;;;;;;;;;;;;;;;;6828903;26;19924;-61
2024/04/22 06:55:16;;;;;;;;;;;;;;;;;;6828871;26;20121;-60
2024/04/22 06:58:22;;;;;;;;;;;;;;;;;;6828907;26;19934;-61
2024/04/22 07:01:25;;;;;;;;;;;;;;;;;;6829301;26;19928;-61
2024/04/22 07:04:46;;;;;;;;;;;;;;;;;;6828068;26;19931;-61
2024/04/22 07:07:51;;;;;;;;;;;;;;;;;;6829012;26;19931;-61
2024/04/22 07:10:54;;;;;;;;;;;;;;;;;;6813337;26;19932;-60
2024/04/22 07:13:59;;;;;;;;;;;;;;;;;;6783081;26;19931;-60
2024/04/22 07:17:02;;;;;;;;;;;;;;;;;;6784120;26;19932;-60
2024/04/22 07:20:10;;;;;;;;;;;;;;;;;;6782406;26;20213;-60
2024/04/22 07:23:13;;;;;;;;;;;;;;;;;;6794274;26;19924;-60
2024/04/22 07:26:18;;;;;;;;;;;;;;;;;;6873916;25;19924;-61
2024/04/22 07:29:21;;;;;;;;;;;;;;;;;;6873672;25;20230;-61
2024/04/22 07:32:26;;;;;;;;;;;;;;;;;;6875171;25;19946;-62
2024/04/22 07:35:36;;;;;;;;;;;;;;;;;;6873971;25;19930;-61
2024/04/22 07:38:39;;;;;;;;;;;;;;;;;;6873947;25;19936;-60
2024/04/22 07:41:44;;;;;;;;;;;;;;;;;;6875001;25;19999;-60
2024/04/22 07:44:47;;;;;;;;;;;;;;;;;;6874330;25;20124;-63
2024/04/22 07:47:52;;;;;;;;;;;;;;;;;;6874054;25;19947;-61
2024/04/22 07:50:57;;;;;;;;;;;;;;;;;;6873527;25;19923;-60
2024/04/22 07:54:03;;;;;;;;;;;;;;;;;;6873489;25;19924;-60
2024/04/22 07:57:09;;;;;;;;;;;;;;;;;;6873094;25;20007;-61
2024/04/22 08:00:12;;;;;;;;;;;;;;;;;;6871333;26;19924;-61
2024/04/22 08:03:17;;;;;;;;;;;;;;;;;;6872667;25;20017;-61
2024/04/22 08:06:23;;;;;;;;;;;;;;;;;;6872832;25;19930;-61
2024/04/22 08:09:28;;;;;;;;;;;;;;;;;;6872678;25;20119;-60
2024/04/22 08:12:31;;;;;;;;;;;;;;;;;;6832674;25;19931;-61
2024/04/22 08:15:36;;;;;;;;;;;;;;;;;;6826646;26;20246;-60
2024/04/22 08:18:38;;;;;;;;;;;;;;;;;;6826947;26;19928;-60
2024/04/22 08:21:46;;;;;;;;;;;;;;;;;;6827236;26;19923;-62
2024/04/22 08:24:50;;;;;;;;;;;;;;;;;;6855301;25;19923;-60
2024/04/22 08:27:55;;;;;;;;;;;;;;;;;;6872990;25;19923;-60
2024/04/22 08:31:01;;;;;;;;;;;;;;;;;;6872769;25;19923;-60
2024/04/22 08:34:06;;;;;;;;;;;;;;;;;;6872185;25;19924;-60
2024/04/22 08:37:14;;;;;;;;;;;;;;;;;;6872604;25;19924;-60
2024/04/22 08:40:20;;;;;;;;;;;;;;;;;;6872173;25;20120;-61
2024/04/22 08:43:28;;;;;;;;;;;;;;;;;;6872598;25;19924;-61
2024/04/22 08:46:33;;;;;;;;;;;;;;;;;;6873609;25;20024;-60
2024/04/22 08:49:38;;;;;;;;;;;;;;;;;;6871237;25;19923;-60
2024/04/22 08:52:47;;;;;;;;;;;;;;;;;;6873581;25;19931;-61
2024/04/22 08:55:58;;;;;;;;;;;;;;;;;;6873118;25;19925;-60
2024/04/22 08:59:03;;;;;;;;;;;;;;;;;;6872379;25;19923;-60
2024/04/22 09:02:08;;;;;;;;;;;;;;;;;;6872313;25;20197;-60
2024/04/22 09:05:11;;;;;;;;;;;;;;;;;;6870675;26;19931;-61
2024/04/22 09:08:20;;;;;;;;;;;;;;;;;;6873180;25;19923;-67
2024/04/22 09:11:23;;;;;;;;;;;;;;;;;;6850201;25;19931;-60
2024/04/22 09:14:48;;;;;;;;;;;;;;;;;;6825848;26;19930;-62
2024/04/22 09:17:51;;;;;;;;;;;;;;;;;;6780929;26;19924;-61
2024/04/22 09:21:06;;;;;;;;;;;;;;;;;;6825121;26;19924;-60
2024/04/22 09:24:12;;;;;;;;;;;;;;;;;;6806250;26;19931;-60
2024/04/22 09:27:18;;;;;;;;;;;;;;;;;;6779666;26;19925;-60
2024/04/22 09:30:21;;;;;;;;;;;;;;;;;;6779952;26;20239;-60
2024/04/22 09:33:26;;;;;;;;;;;;;;;;;;6780323;26;19924;-60
2024/04/22 09:36:29;;;;;;;;;;;;;;;;;;6780471;26;19931;-60
2024/04/22 09:39:37;;;;;;;;;;;;;;;;;;6780304;26;19954;-60
2024/04/22 09:42:40;;;;;;;;;;;;;;;;;;6779847;26;19951;-59
2024/04/22 09:45:45;;;;;;;;;;;;;;;;;;6779326;26;20053;-59
2024/04/22 09:48:50;;;;;;;;;;;;;;;;;;6779918;26;19924;-66
2024/04/22 09:51:53;;;;;;;;;;;;;;;;;;6780111;26;20017;-59
2024/04/22 09:55:02;;;;;;;;;;;;;;;;;;6779055;26;19931;-59
2024/04/22 09:58:05;;;;;;;;;;;;;;;;;;6780286;26;19924;-60
2024/04/22 10:01:10;;;;;;;;;;;;;;;;;;6779375;26;19931;-61
2024/04/22 10:04:13;;;;;;;;;;;;;;;;;;6779489;26;19932;-61
2024/04/22 10:07:19;;;;;;;;;;;;;;;;;;6781287;26;20084;-61
2024/04/22 10:10:24;;;;;;;;;;;;;;;;;;6779695;26;19928;-60
2024/04/22 10:13:30;;;;;;;;;;;;;;;;;;6760900;26;19924;-59
2024/04/22 10:16:32;;;;;;;;;;;;;;;;;;6762672;26;19924;-60
2024/04/22 10:19:38;;;;;;;;;;;;;;;;;;6778457;26;19925;-60
2024/04/22 10:22:41;;;;;;;;;;;;;;;;;;6779398;26;19924;-61
2024/04/22 10:25:49;;;;;;;;;;;;;;;;;;6832957;26;20283;-61
2024/04/22 10:28:52;;;;;;;;;;;;;;;;;;6828926;26;19999;-60
2024/04/22 10:31:57;;;;;;;;;;;;;;;;;;6833697;25;19924;-60
2024/04/22 10:35:03;;;;;;;;;;;;;;;;;;6856417;25;20231;-63
2024/04/22 10:38:06;;;;;;;;;;;;;;;;;;6875789;25;20743;-61
2024/04/22 10:41:14;;;;;;;;;;;;;;;;;;6873623;25;20101;-60
2024/04/22 10:44:19;;;;;;;;;;;;;;;;;;6874019;25;20022;-61
2024/04/22 10:47:22;;;;;;;;;;;;;;;;;;6874386;25;19933;-61
2024/04/22 10:50:27;;;;;;;;;;;;;;;;;;6874567;25;19965;-61
2024/04/22 10:53:30;;;;;;;;;;;;;;;;;;6873406;25;19923;-59
2024/04/22 10:56:39;;;;;;;;;;;;;;;;;;6875002;25;19923;-59
2024/04/22 10:59:42;;;;;;;;;;;;;;;;;;6874796;25;19930;-60
2024/04/22 11:02:47;;;;;;;;;;;;;;;;;;6874543;25;19923;-63
2024/04/22 11:05:50;;;;;;;;;;;;;;;;;;6873147;25;19927;-60
2024/04/22 11:08:55;;;;;;;;;;;;;;;;;;6874309;25;19957;-61
2024/04/22 11:12:01;;;;;;;;;;;;;;;;;;6843054;25;19930;-61
2024/04/22 11:15:06;;;;;;;;;;;;;;;;;;6827773;26;19988;-61
2024/04/22 11:18:11;;;;;;;;;;;;;;;;;;6828753;26;19928;-61
2024/04/22 11:21:14;;;;;;;;;;;;;;;;;;6827618;26;20411;-60
2024/04/22 11:24:20;;;;;;;;;;;;;;;;;;6847537;25;19923;-61
2024/04/22 11:27:25;;;;;;;;;;;;;;;;;;6874949;25;19924;-60
2024/04/22 11:30:30;;;;;;;;;;;;;;;;;;6874101;25;20117;-60
2024/04/22 11:33:36;;;;;;;;;;;;;;;;;;6874857;25;19930;-62
2024/04/22 11:36:40;;;;;;;;;;;;;;;;;;6876121;25;20228;-61
2024/04/22 11:39:45;;;;;;;;;;;;;;;;;;6874676;25;19930;-61
2024/04/22 11:42:50;;;;;;;;;;;;;;;;;;6874633;25;19923;-61
2024/04/22 11:45:55;;;;;;;;;;;;;;;;;;6839331;25;20021;-60
2024/04/22 11:49:01;;;;;;;;;;;;;;;;;;6839345;25;19930;-60
2024/04/22 11:52:06;;;;;;;;;;;;;;;;;;6874583;25;20033;-61
2024/04/22 11:55:11;;;;;;;;;;;;;;;;;;6848172;25;19923;-60
2024/04/22 11:58:18;;;;;;;;;;;;;;;;;;6873689;25;19931;-60
2024/04/22 12:01:23;;;;;;;;;;;;;;;;;;6873319;25;19923;-60
2024/04/22 12:04:26;;;;;;;;;;;;;;;;;;6872503;25;19930;-60
2024/04/22 12:07:32;;;;;;;;;;;;;;;;;;6873121;25;20203;-60
2024/04/22 12:10:34;;;;;;;;;;;;;;;;;;6862873;25;19924;-59
2024/04/22 12:13:42;;;;;;;;;;;;;;;;;;6826274;26;20009;-60
2024/04/22 12:16:48;;;;;;;;;;;;;;;;;;6826717;26;19974;-61
2024/04/22 12:19:51;;;;;;;;;;;;;;;;;;6826226;26;19924;-61
2024/04/22 12:22:57;;;;;;;;;;;;;;;;;;6827107;26;19931;-61
2024/04/22 12:26:00;;;;;;;;;;;;;;;;;;6827001;26;19924;-60
2024/04/22 12:29:08;;;;;;;;;;;;;;;;;;6826298;26;19931;-60
2024/04/22 12:32:11;;;;;;;;;;;;;;;;;;6827542;26;19955;-60
2024/04/22 12:35:16;;;;;;;;;;;;;;;;;;6827322;26;19924;-60
2024/04/22 12:38:19;;;;;;;;;;;;;;;;;;6826597;26;20009;-61
2024/04/22 12:41:24;;;;;;;;;;;;;;;;;;6827157;26;19958;-60
2024/04/22 12:44:29;;;;;;;;;;;;;;;;;;6826806;26;19983;-60
2024/04/22 12:50:58;;;;;;;;;;;;;;;;;;6825966;26;20098;-60
2024/04/22 12:54:05;;;;;;;;;;;;;;;;;;6825453;26;19924;-60
2024/04/22 12:57:10;;;;;;;;;;;;;;;;;;6826015;26;19931;-60
2024/04/22 13:00:18;;;;;;;;;;;;;;;;;;6825530;26;20065;-60
2024/04/22 13:03:23;;;;;;;;;;;;;;;;;;6825927;26;20114;-60
2024/04/22 13:06:29;;;;;;;;;;;;;;;;;;6826840;26;20820;-60
2024/04/22 13:09:35;;;;;;;;;;;;;;;;;;6826570;26;19931;-60
2024/04/22 13:12:40;;;;;;;;;;;;;;;;;;6826612;26;19924;-60
2024/04/22 13:15:48;;;;;;;;;;;;;;;;;;6825483;26;19931;-61
2024/04/22 13:18:53;;;;;;;;;;;;;;;;;;6826007;26;19924;-60
2024/04/22 13:22:00;;;;;;;;;;;;;;;;;;6826700;26;19924;-60
2024/04/22 13:25:05;;;;;;;;;;;;;;;;;;6856639;25;20318;-60
2024/04/22 13:28:11;;;;;;;;;;;;;;;;;;6871985;25;20010;-60
2024/04/22 13:31:19;;;;;;;;;;;;;;;;;;6871626;25;19923;-60
2024/04/22 13:34:22;;;;;;;;;;;;;;;;;;6871685;25;19923;-61
2024/04/22 13:37:27;;;;;;;;;;;;;;;;;;6872738;25;19934;-60
2024/04/22 13:40:32;;;;;;;;;;;;;;;;;;6871869;25;21174;-60
2024/04/22 13:43:38;;;;;;;;;;;;;;;;;;6871732;25;19930;-60
2024/04/22 13:46:46;;;;;;;;;;;;;;;;;;6872425;25;19927;-60
2024/04/22 13:49:48;;;;;;;;;;;;;;;;;;6871689;25;19923;-61
2024/04/22 13:52:54;;;;;;;;;;;;;;;;;;6871946;25;19924;-60
2024/04/22 13:55:57;;;;;;;;;;;;;;;;;;6870780;25;20052;-59
2024/04/22 13:59:03;;;;;;;;;;;;;;;;;;6874834;25;19927;-60
2024/04/22 14:02:08;;;;;;;;;;;;;;;;;;6876002;25;19930;-59
2024/04/22 14:05:14;;;;;;;;;;;;;;;;;;6875453;25;19923;-61
2024/04/22 14:08:17;;;;;;;;;;;;;;;;;;6876244;25;20036;-61
2024/04/22 14:11:22;;;;;;;;;;;;;;;;;;6854661;25;19931;-61
2024/04/22 14:14:24;;;;;;;;;;;;;;;;;;6829314;26;19924;-63
2024/04/22 14:17:32;;;;;;;;;;;;;;;;;;6829082;26;20010;-61
2024/04/22 14:20:38;;;;;;;;;;;;;;;;;;6829267;26;20113;-60
2024/04/22 14:23:43;;;;;;;;;;;;;;;;;;6839072;25;19923;-60
2024/04/22 14:26:46;;;;;;;;;;;;;;;;;;6875750;25;19923;-60
2024/04/22 14:29:51;;;;;;;;;;;;;;;;;;6875151;25;19924;-62
2024/04/22 14:32:59;;;;;;;;;;;;;;;;;;6875214;25;19924;-61
2024/04/22 14:36:04;;;;;;;;;;;;;;;;;;6874738;25;19930;-60
2024/04/22 14:39:07;;;;;;;;;;;;;;;;;;6875090;25;19924;-60
2024/04/22 14:42:13;;;;;;;;;;;;;;;;;;6875597;25;20123;-61
2024/04/22 14:45:18;;;;;;;;;;;;;;;;;;6874314;25;19931;-60
2024/04/22 14:48:23;;;;;;;;;;;;;;;;;;6874641;25;20128;-61
2024/04/22 14:51:28;;;;;;;;;;;;;;;;;;6875318;25;19923;-60
2024/04/22 14:54:31;;;;;;;;;;;;;;;;;;6875543;25;19923;-60
2024/04/22 14:57:36;;;;;;;;;;;;;;;;;;6863236;25;20007;-60
2024/04/22 15:00:42;;;;;;;;;;;;;;;;;;6874377;25;20116;-60
2024/04/22 15:03:50;;;;;;;;;;;;;;;;;;6874685;25;20823;-62
2024/04/22 15:06:53;;;;;;;;;;;;;;;;;;6874273;25;19985;-60
2024/04/22 15:09:58;;;;;;;;;;;;;;;;;;6873187;25;19923;-60
2024/04/22 15:13:01;;;;;;;;;;;;;;;;;;6828365;26;19943;-60
2024/04/22 15:16:06;;;;;;;;;;;;;;;;;;6828041;26;19924;-61
2024/04/22 15:19:14;;;;;;;;;;;;;;;;;;6827799;26;19924;-60
2024/04/22 15:22:19;;;;;;;;;;;;;;;;;;6828905;26;19931;-62
2024/04/22 15:25:22;;;;;;;;;;;;;;;;;;6864735;25;19928;-61
2024/04/22 15:28:27;;;;;;;;;;;;;;;;;;6874485;25;19923;-61
2024/04/22 15:31:30;;;;;;;;;;;;;;;;;;6873816;25;19985;-61
2024/04/22 15:34:42;;;;;;;;;;;;;;;;;;6872971;25;19931;-60
2024/04/22 15:37:50;;;;;;;;;;;;;;;;;;6873367;25;20012;-60
2024/04/22 15:40:55;;;;;;;;;;;;;;;;;;6873097;25;19923;-60
2024/04/22 15:43:59;;;;;;;;;;;;;;;;;;6861387;25;19958;-61
2024/04/22 15:47:04;;;;;;;;;;;;;;;;;;6848003;25;20003;-60
2024/04/22 15:50:10;;;;;;;;;;;;;;;;;;6873302;25;19923;-60
2024/04/22 15:53:15;;;;;;;;;;;;;;;;;;6873511;25;19927;-60
2024/04/22 15:56:17;;;;;;;;;;;;;;;;;;6872657;25;19930;-60
2024/04/22 15:59:23;;;;;;;;;;;;;;;;;;6872870;25;19923;-60
2024/04/22 16:02:25;;;;;;;;;;;;;;;;;;6873827;25;20101;-61
2024/04/22 16:05:33;;;;;;;;;;;;;;;;;;6873386;25;20091;-62
2024/04/22 16:08:36;;;;;;;;;;;;;;;;;;6872896;25;19923;-61
2024/04/22 16:11:41;;;;;;;;;;;;;;;;;;6847564;25;20075;-62
2024/04/22 16:14:44;;;;;;;;;;;;;;;;;;6827200;26;19924;-60
2024/04/22 16:17:49;;;;;;;;;;;;;;;;;;6827683;26;20018;-60
2024/04/22 16:20:57;;;;;;;;;;;;;;;;;;6826616;26;20125;-60
2024/04/22 16:24:08;;;;;;;;;;;;;;;;;;6843526;25;19947;-60
2024/04/22 16:27:11;;;;;;;;;;;;;;;;;;6873308;25;19924;-61
2024/04/22 16:30:16;;;;;;;;;;;;;;;;;;6872917;25;19931;-61
2024/04/22 16:33:22;;;;;;;;;;;;;;;;;;6872377;25;20064;-60
2024/04/22 16:36:27;;;;;;;;;;;;;;;;;;6873200;25;20024;-60
2024/04/22 16:39:33;;;;;;;;;;;;;;;;;;6873548;25;19931;-61
2024/04/22 16:42:36;;;;;;;;;;;;;;;;;;6873900;25;20021;-61
2024/04/22 16:45:41;;;;;;;;;;;;;;;;;;6872791;25;19930;-61
2024/04/22 16:48:44;;;;;;;;;;;;;;;;;;6871886;25;20112;-61
2024/04/22 16:51:52;;;;;;;;;;;;;;;;;;6873542;25;19931;-60
2024/04/22 16:54:54;;;;;;;;;;;;;;;;;;6873018;25;19931;-60
2024/04/22 16:57:59;;;;;;;;;;;;;;;;;;6873049;25;19930;-60
2024/04/22 17:01:05;;;;;;;;;;;;;;;;;;6871283;25;19930;-61
2024/04/22 17:04:08;;;;;;;;;;;;;;;;;;6872984;25;19933;-60
2024/04/22 17:07:16;;;;;;;;;;;;;;;;;;6873120;25;19927;-61
2024/04/22 17:10:20;;;;;;;;;;;;;;;;;;6866005;25;19931;-60
2024/04/22 17:13:25;;;;;;;;;;;;;;;;;;6825441;26;19931;-61
2024/04/22 17:16:31;;;;;;;;;;;;;;;;;;6781362;26;19924;-60
2024/04/22 17:19:33;;;;;;;;;;;;;;;;;;6826222;26;20136;-61
2024/04/22 17:22:43;;;;;;;;;;;;;;;;;;6826328;26;19931;-60
2024/04/22 17:25:46;;;;;;;;;;;;;;;;;;6773254;26;19935;-61
2024/04/22 17:28:51;;;;;;;;;;;;;;;;;;6750221;26;19948;-60
2024/04/22 17:31:57;;;;;;;;;;;;;;;;;;6750295;26;20132;-60
2024/04/22 17:35:00;;;;;;;;;;;;;;;;;;6780412;26;20016;-61
2024/04/22 17:38:08;;;;;;;;;;;;;;;;;;6750532;26;19985;-60
2024/04/22 17:41:14;;;;;;;;;;;;;;;;;;6749511;26;19925;-60
2024/04/22 17:44:16;;;;;;;;;;;;;;;;;;6763129;26;19931;-60
2024/04/22 17:47:21;;;;;;;;;;;;;;;;;;6780463;26;19955;-61
2024/04/22 17:50:27;;;;;;;;;;;;;;;;;;6779054;26;20114;-60
2024/04/22 17:53:32;;;;;;;;;;;;;;;;;;6780246;26;20117;-60
2024/04/22 17:56:38;;;;;;;;;;;;;;;;;;6780153;26;19931;-59
2024/04/22 17:59:48;;;;;;;;;;;;;;;;;;6780062;26;19977;-61
2024/04/22 18:02:51;;;;;;;;;;;;;;;;;;6779630;26;19924;-60
2024/04/22 18:05:56;;;;;;;;;;;;;;;;;;6780383;26;19924;-61
2024/04/22 18:09:02;;;;;;;;;;;;;;;;;;6778291;26;20115;-61
2024/04/22 18:12:07;;;;;;;;;;;;;;;;;;6781102;26;19931;-61
2024/04/22 18:15:10;;;;;;;;;;;;;;;;;;6780072;26;19924;-61
2024/04/22 18:18:16;;;;;;;;;;;;;;;;;;6759677;26;20227;-61
2024/04/22 18:21:23;;;;;;;;;;;;;;;;;;6697378;26;19926;-61
2024/04/22 18:24:30;;;;;;;;;;;;;;;;;;6758051;26;19924;-61
2024/04/22 18:27:35;;;;;;;;;;;;;;;;;;6782597;26;20122;-61
2024/04/22 18:30:40;;;;;;;;;;;;;;;;;;6781999;26;20037;-60
2024/04/22 18:33:52;;;;;;;;;;;;;;;;;;6759032;26;20122;-61
2024/04/22 18:36:57;;;;;;;;;;;;;;;;;;6766399;26;19932;-61
2024/04/22 18:40:03;;;;;;;;;;;;;;;;;;6743047;26;19925;-61
2024/04/22 18:43:08;;;;;;;;;;;;;;;;;;6757959;26;19924;-60
2024/04/22 18:46:11;;;;;;;;;;;;;;;;;;6785479;26;19931;-61
2024/04/22 18:49:16;;;;;;;;;;;;;;;;;;6786285;26;19925;-60
2024/04/22 18:52:19;;;;;;;;;;;;;;;;;;6761978;26;19925;-61
2024/04/22 18:55:28;;;;;;;;;;;;;;;;;;6697610;26;19925;-61
2024/04/22 18:58:31;;;;;;;;;;;;;;;;;;6696929;26;19932;-62
2024/04/22 19:01:36;;;;;;;;;;;;;;;;;;6697787;26;19925;-62
2024/04/22 19:04:39;;;;;;;;;;;;;;;;;;6697347;26;19929;-61
2024/04/22 19:07:44;;;;;;;;;;;;;;;;;;6703685;26;19949;-63
2024/04/22 19:10:52;;;;;;;;;;;;;;;;;;6729182;26;19930;-61
2024/04/22 19:13:55;;;;;;;;;;;;;;;;;;6697318;26;20038;-61
2024/04/22 19:17:00;;;;;;;;;;;;;;;;;;6725958;26;20031;-62
2024/04/22 19:20:04;;;;;;;;;;;;;;;;;;6722582;26;20126;-62
2024/04/22 19:23:09;;;;;;;;;;;;;;;;;;6741567;26;19932;-63
2024/04/22 19:26:15;;;;;;;;;;;;;;;;;;6740735;26;20126;-63
2024/04/22 19:29:21;;;;;;;;;;;;;;;;;;6740923;26;20126;-60
2024/04/22 19:32:26;;;;;;;;;;;;;;;;;;6741818;26;19932;-61
2024/04/22 19:35:29;;;;;;;;;;;;;;;;;;6740876;26;19936;-62
2024/04/22 19:38:34;;;;;;;;;;;;;;;;;;6740927;26;19932;-61
2024/04/22 19:41:43;;;;;;;;;;;;;;;;;;6744079;26;19932;-61
2024/04/22 19:44:52;;;;;;;;;;;;;;;;;;6753791;26;19925;-60
2024/04/22 19:47:54;;;;;;;;;;;;;;;;;;6740346;26;19932;-61
2024/04/22 19:51:00;;;;;;;;;;;;;;;;;;6740342;26;19932;-62
2024/04/22 19:54:02;;;;;;;;;;;;;;;;;;6740097;26;19925;-62
2024/04/22 19:57:10;;;;;;;;;;;;;;;;;;6740969;26;19932;-61
2024/04/22 20:00:16;;;;;;;;;;;;;;;;;;6740714;26;19925;-61
2024/04/22 20:03:18;;;;;;;;;;;;;;;;;;6739216;26;19925;-62
2024/04/22 20:06:24;;;;;;;;;;;;;;;;;;6741642;26;20142;-61
2024/04/22 20:09:27;;;;;;;;;;;;;;;;;;6740898;26;19924;-63
2024/04/22 20:12:34;;;;;;;;;;;;;;;;;;6673795;26;19925;-62
2024/04/22 20:15:40;;;;;;;;;;;;;;;;;;6696382;26;19930;-61
2024/04/22 20:18:53;;;;;;;;;;;;;;;;;;6695567;26;19925;-61
2024/04/22 20:22:02;;;;;;;;;;;;;;;;;;6696805;26;19933;-61
2024/04/22 20:25:08;;;;;;;;;;;;;;;;;;6711226;26;19932;-62
2024/04/22 20:28:13;;;;;;;;;;;;;;;;;;6740742;26;19925;-63
2024/04/22 20:31:20;;;;;;;;;;;;;;;;;;6695688;26;19932;-61
2024/04/22 20:34:23;;;;;;;;;;;;;;;;;;6696360;26;19925;-61
2024/04/22 20:37:29;;;;;;;;;;;;;;;;;;6697029;26;20127;-61
2024/04/22 20:40:34;;;;;;;;;;;;;;;;;;6695816;26;19936;-61
2024/04/22 20:43:39;;;;;;;;;;;;;;;;;;6709314;26;20129;-61
2024/04/22 20:46:45;;;;;;;;;;;;;;;;;;6740261;26;19955;-62
2024/04/22 20:49:49;;;;;;;;;;;;;;;;;;6739510;26;20012;-60
2024/04/22 20:52:54;;;;;;;;;;;;;;;;;;6739570;26;20031;-61
2024/04/22 20:55:59;;;;;;;;;;;;;;;;;;6739343;26;19929;-62
2024/04/22 20:59:07;;;;;;;;;;;;;;;;;;6739389;26;19925;-60
2024/04/22 21:02:10;;;;;;;;;;;;;;;;;;6739698;26;19932;-61
2024/04/22 21:05:15;;;;;;;;;;;;;;;;;;6737631;26;20011;-61
2024/04/22 21:08:18;;;;;;;;;;;;;;;;;;6796512;26;20122;-61
2024/04/22 21:11:24;;;;;;;;;;;;;;;;;;6739076;26;20030;-62
2024/04/22 21:14:29;;;;;;;;;;;;;;;;;;6738991;26;20137;-62
2024/04/22 21:17:34;;;;;;;;;;;;;;;;;;6739014;26;20009;-60